Time;durP1;ratioP1;P1;durP2;ratioP2;P2;SDS_P1;SDS_P2;PMS_P1;PMS_P2;Temp;Humidity;BMP_temperature;BMP_pressure;BME280_temperature;BME280_humidity;BME280_pressure;Samples;Min_cycle;Max_cycle;Signal;HPM_P1;HPM_P2
2023/05/17 00:01:13;;;;;;;8.63;1.48;;;;;;;17.70;41.71;102213.53;4996869;28;20026;-71
2023/05/17 00:03:39;;;;;;;6.43;1.40;;;;;;;17.67;42.28;102213.81;4996240;28;20022;-71
2023/05/17 00:06:04;;;;;;;5.13;1.45;;;;;;;17.63;42.01;102213.22;4996377;28;20031;-72
2023/05/17 00:08:30;;;;;;;10.50;1.30;;;;;;;17.60;41.55;102218.94;4995116;28;20156;-69
2023/05/17 00:10:56;;;;;;;6.28;1.15;;;;;;;17.55;41.40;102209.50;4978697;28;20113;-71
2023/05/17 00:13:21;;;;;;;5.05;1.67;;;;;;;17.52;41.52;102221.47;4995399;28;20109;-71
2023/05/17 00:15:46;;;;;;;11.38;1.42;;;;;;;17.48;41.87;102214.59;4994788;28;20064;-71
2023/05/17 00:18:12;;;;;;;5.22;1.48;;;;;;;17.46;41.66;102212.03;4977752;28;20110;-72
2023/05/17 00:20:37;;;;;;;6.88;1.15;;;;;;;17.43;41.42;102212.31;4995581;28;20045;-71
2023/05/17 00:23:03;;;;;;;4.00;1.55;;;;;;;17.42;42.82;102209.72;4996100;28;20050;-71
2023/05/17 00:25:28;;;;;;;7.32;1.30;;;;;;;17.36;42.19;102199.47;4994701;28;20497;-70
2023/05/17 00:27:54;;;;;;;5.50;1.58;;;;;;;17.35;41.22;102208.59;4995560;28;20037;-71
2023/05/17 00:30:19;;;;;;;2.75;1.40;;;;;;;17.32;42.53;102212.44;4978296;28;20046;-70
2023/05/17 00:32:45;;;;;;;6.13;1.40;;;;;;;17.30;42.49;102210.84;4995919;28;20030;-70
2023/05/17 00:35:11;;;;;;;8.07;1.35;;;;;;;17.28;41.58;102218.28;4978444;28;20406;-70
2023/05/17 00:37:36;;;;;;;5.30;1.40;;;;;;;17.24;41.92;102217.69;4995868;28;20022;-71
2023/05/17 00:40:04;;;;;;;2.28;1.00;;;;;;;17.19;42.34;102208.25;4995115;28;20050;-71
2023/05/17 00:42:29;;;;;;;5.65;1.08;;;;;;;17.20;41.97;102221.66;4995846;28;20410;-71
2023/05/17 00:44:55;;;;;;;1.45;1.05;;;;;;;17.18;42.30;102217.38;4995234;28;20038;-71
2023/05/17 00:47:20;;;;;;;7.05;1.65;;;;;;;17.15;42.26;102218.50;4978037;28;20406;-71
2023/05/17 00:49:46;;;;;;;6.28;1.27;;;;;;;17.13;42.13;102216.94;4994743;28;20074;-71
2023/05/17 00:52:11;;;;;;;6.93;2.25;;;;;;;17.12;42.07;102223.34;4995605;28;20558;-71
2023/05/17 00:54:37;;;;;;;6.68;1.45;;;;;;;17.10;42.26;102228.03;4994663;28;20038;-71
2023/05/17 00:57:03;;;;;;;5.88;1.38;;;;;;;17.05;41.80;102217.63;4984094;28;20065;-71
2023/05/17 00:59:29;;;;;;;4.10;1.10;;;;;;;17.04;42.12;102225.88;4978356;28;20034;-72
2023/05/17 01:01:55;;;;;;;5.28;1.42;;;;;;;17.02;43.15;102219.75;4993405;28;20060;-71
2023/05/17 01:04:20;;;;;;;6.10;1.35;;;;;;;16.97;43.41;102214.75;4994559;28;20498;-71
2023/05/17 01:06:45;;;;;;;2.95;1.48;;;;;;;16.97;43.06;102219.31;4993820;28;20469;-70
2023/05/17 01:09:11;;;;;;;2.28;1.10;;;;;;;16.95;43.45;102221.28;4995104;28;20093;-71
2023/05/17 01:11:55;;;;;;;8.23;1.77;;;;;;;16.93;42.54;102218.72;4993679;28;20080;-71
2023/05/17 01:14:45;;;;;;;4.85;1.30;;;;;;;16.91;43.37;102217.13;4993649;28;20034;-71
2023/05/17 01:17:17;;;;;;;6.80;1.35;;;;;;;16.86;43.18;102222.97;4995061;28;20030;-70
2023/05/17 01:19:52;;;;;;;6.25;3.33;;;;;;;16.84;43.04;102222.22;4993838;28;20026;-70
2023/05/17 01:22:44;;;;;;;6.13;1.88;;;;;;;16.82;43.86;102221.50;4995577;28;20022;-71
2023/05/17 01:25:43;;;;;;;4.25;1.52;;;;;;;16.78;43.45;102234.44;4970381;28;20049;-71
2023/05/17 01:28:10;;;;;;;8.95;1.80;;;;;;;16.76;42.33;102233.75;4995545;28;20047;-70
2023/05/17 01:30:36;;;;;;;5.05;1.30;;;;;;;16.72;44.13;102229.56;4977352;28;20042;-71
2023/05/17 01:33:03;;;;;;;7.82;1.50;;;;;;;16.69;43.28;102226.31;4993530;28;20038;-71
2023/05/17 01:35:28;;;;;;;6.30;1.88;;;;;;;16.67;43.52;102228.25;4993337;28;20050;-70
2023/05/17 01:37:54;;;;;;;4.70;1.48;;;;;;;16.67;44.21;102239.09;4994331;28;20062;-70
2023/05/17 01:40:20;;;;;;;3.78;1.58;;;;;;;16.65;44.05;102241.06;4996571;28;20042;-71
2023/05/17 01:42:48;;;;;;;8.55;1.38;;;;;;;16.64;42.65;102240.22;4996679;28;20034;-70
2023/05/17 01:45:34;;;;;;;6.25;1.90;;;;;;;16.64;44.10;102242.06;4996545;28;20037;-71
2023/05/17 01:48:20;;;;;;;9.40;2.22;;;;;;;16.61;42.78;102239.66;4980524;28;20037;-72
2023/05/17 01:50:48;;;;;;;7.30;1.85;;;;;;;16.57;43.28;102239.03;4996641;28;20041;-71
2023/05/17 01:53:34;;;;;;;3.63;1.25;;;;;;;16.54;43.88;102238.44;4979891;28;20042;-71
2023/05/17 01:56:03;;;;;;;6.15;1.83;;;;;;;16.50;44.15;102236.97;5013814;28;20065;-70
2023/05/17 01:58:29;;;;;;;4.30;1.52;;;;;;;16.46;43.85;102233.69;4996524;28;20506;-71
2023/05/17 02:00:56;;;;;;;13.27;1.98;;;;;;;16.44;43.43;102241.06;4980474;28;20053;-71
2023/05/17 02:03:21;;;;;;;4.75;2.28;;;;;;;16.42;43.01;102237.63;4996341;28;20034;-71
2023/05/17 02:05:47;;;;;;;5.70;1.63;;;;;;;16.39;43.56;102239.75;5014042;28;20117;-70
2023/05/17 02:08:13;;;;;;;4.82;1.80;;;;;;;16.34;44.38;102234.72;4996272;28;20033;-71
2023/05/17 02:10:38;;;;;;;8.35;1.85;;;;;;;16.31;43.96;102240.41;4986588;28;20389;-70
2023/05/17 02:13:04;;;;;;;8.43;1.90;;;;;;;16.31;43.72;102249.38;5012608;28;20037;-70
2023/05/17 02:15:30;;;;;;;7.45;1.75;;;;;;;16.25;44.36;102238.22;4996414;28;20038;-71
2023/05/17 02:17:55;;;;;;;8.98;1.67;;;;;;;16.27;43.15;102249.78;5012828;28;20044;-71
2023/05/17 02:20:21;;;;;;;4.75;2.13;;;;;;;16.25;43.62;102244.47;4996053;28;20113;-71
2023/05/17 02:22:46;;;;;;;5.90;1.58;;;;;;;16.23;43.73;102241.06;5013473;28;20041;-71
2023/05/17 02:25:12;;;;;;;8.98;1.42;;;;;;;16.22;43.91;102243.88;4996391;28;20029;-71
2023/05/17 02:27:37;;;;;;;18.65;2.10;;;;;;;16.19;44.13;102239.59;5013728;28;20041;-70
2023/05/17 02:30:03;;;;;;;5.30;2.17;;;;;;;16.17;43.82;102246.13;4997953;28;20180;-69
2023/05/17 02:32:29;;;;;;;3.08;1.77;;;;;;;16.16;43.95;102249.84;5000481;28;20041;-72
2023/05/17 02:34:55;;;;;;;10.23;2.50;;;;;;;16.11;43.85;102247.50;5001135;28;20398;-72
2023/05/17 02:37:21;;;;;;;6.90;1.90;;;;;;;16.10;44.72;102247.66;5007099;28;20021;-70
2023/05/17 02:39:46;;;;;;;4.72;2.28;;;;;;;16.08;43.66;102242.34;4992575;28;20046;-70
2023/05/17 02:42:12;;;;;;;7.72;1.80;;;;;;;16.09;45.08;102256.72;4994055;28;20387;-70
2023/05/17 02:44:37;;;;;;;6.95;1.88;;;;;;;16.04;44.75;102245.47;4992555;28;20129;-71
2023/05/17 02:47:03;;;;;;;8.93;2.22;;;;;;;16.03;44.68;102249.13;4976211;28;20034;-70
2023/05/17 02:49:28;;;;;;;3.70;1.70;;;;;;;16.00;44.34;102252.09;4993433;28;20026;-70
2023/05/17 02:51:53;;;;;;;6.38;2.20;;;;;;;16.00;44.58;102255.66;4976546;28;20117;-71
2023/05/17 02:54:19;;;;;;;10.68;2.00;;;;;;;15.98;43.61;102262.19;4992206;28;20031;-71
2023/05/17 02:56:44;;;;;;;7.60;1.83;;;;;;;15.95;45.21;102262.44;4992428;28;20047;-71
2023/05/17 02:59:10;;;;;;;7.57;2.42;;;;;;;15.92;44.97;102268.09;4992478;28;20030;-71
2023/05/17 03:01:35;;;;;;;6.78;2.03;;;;;;;15.90;45.17;102260.13;4993412;28;20114;-70
2023/05/17 03:04:00;;;;;;;6.85;1.58;;;;;;;15.88;44.65;102272.06;4992745;28;20027;-70
2023/05/17 03:06:27;;;;;;;4.15;1.63;;;;;;;15.85;44.18;102267.78;4992266;28;20510;-70
2023/05/17 03:08:53;;;;;;;7.57;1.85;;;;;;;15.81;44.90;102265.44;4992276;28;20058;-69
2023/05/17 03:11:18;;;;;;;9.45;1.95;;;;;;;15.84;44.92;102274.16;4992243;28;20068;-70
2023/05/17 03:13:45;;;;;;;7.00;1.90;;;;;;;15.83;44.05;102275.13;4992060;28;20097;-70
2023/05/17 03:16:10;;;;;;;2.28;1.42;;;;;;;15.81;45.26;102271.72;4992667;28;20041;-70
2023/05/17 03:18:36;;;;;;;5.43;1.73;;;;;;;15.81;44.19;102276.25;4992337;28;20031;-70
2023/05/17 03:21:01;;;;;;;9.00;1.98;;;;;;;15.78;44.67;102271.09;4975880;28;20031;-70
2023/05/17 03:23:27;;;;;;;3.35;1.77;;;;;;;15.78;45.85;102281.91;4992225;28;20406;-71
2023/05/17 03:25:52;;;;;;;6.20;1.67;;;;;;;15.74;44.50;102276.75;4994620;28;20034;-70
2023/05/17 03:28:17;;;;;;;5.75;1.45;;;;;;;15.71;45.14;102277.03;4964340;28;20437;-69
2023/05/17 03:30:43;;;;;;;6.70;2.30;;;;;;;15.66;44.92;102284.63;4995568;28;20046;-69
2023/05/17 03:33:08;;;;;;;5.65;1.48;;;;;;;15.60;44.47;102285.16;4963457;28;20030;-71
2023/05/17 03:35:33;;;;;;;3.75;1.30;;;;;;;15.56;45.92;102282.81;4963248;28;20038;-70
2023/05/17 03:37:59;;;;;;;4.40;1.70;;;;;;;15.50;45.36;102281.47;4995947;28;20057;-70
2023/05/17 03:40:24;;;;;;;6.72;1.58;;;;;;;15.50;44.38;102284.19;5016631;28;20065;-71
2023/05/17 03:42:50;;;;;;;5.30;3.15;;;;;;;15.48;45.49;102291.56;4998889;28;20520;-71
2023/05/17 03:45:16;;;;;;;9.48;2.28;;;;;;;15.46;44.43;102296.25;5017821;28;20041;-70
2023/05/17 03:47:41;;;;;;;3.55;1.63;;;;;;;15.38;44.54;102289.72;4986917;28;20034;-70
2023/05/17 03:50:07;;;;;;;5.72;1.83;;;;;;;15.43;45.78;102295.59;4982492;28;20105;-70
2023/05/17 03:52:33;;;;;;;9.55;1.92;;;;;;;15.39;45.82;102297.66;4998472;28;20117;-71
2023/05/17 03:54:58;;;;;;;5.68;1.90;;;;;;;15.37;45.82;102299.63;4982744;28;20057;-70
2023/05/17 03:57:24;;;;;;;3.42;1.65;;;;;;;15.36;44.60;102300.63;5015852;28;20378;-71
2023/05/17 03:59:49;;;;;;;4.93;1.90;;;;;;;15.37;45.87;102304.19;4998483;28;20033;-70
2023/05/17 04:02:15;;;;;;;12.73;2.00;;;;;;;15.37;44.81;102305.03;4982002;28;20075;-71
2023/05/17 04:04:42;;;;;;;7.47;2.00;;;;;;;15.41;45.53;102311.91;4998397;28;20117;-71
2023/05/17 04:07:08;;;;;;;6.88;2.17;;;;;;;15.42;46.25;102313.63;4982520;28;20025;-71
2023/05/17 04:09:33;;;;;;;3.65;2.08;;;;;;;15.44;45.23;102317.06;4998301;28;20034;-70
2023/05/17 04:11:59;;;;;;;5.65;1.83;;;;;;;15.46;45.32;102308.84;4966069;28;20030;-70
2023/05/17 04:14:25;;;;;;;11.15;2.08;;;;;;;15.48;45.83;102318.56;4998402;28;20072;-70
2023/05/17 04:16:50;;;;;;;8.27;2.13;;;;;;;15.49;45.66;102317.59;4983512;28;20029;-71
2023/05/17 04:19:15;;;;;;;6.95;1.80;;;;;;;15.51;45.51;102317.47;5017901;28;20034;-71
2023/05/17 04:21:41;;;;;;;6.05;1.80;;;;;;;15.53;45.34;102332.56;4999186;28;20044;-70
2023/05/17 04:24:06;;;;;;;5.63;1.95;;;;;;;15.54;45.19;102323.47;4998028;28;20057;-70
2023/05/17 04:26:32;;;;;;;6.47;2.00;;;;;;;15.55;45.46;102330.56;4997629;28;20099;-70
2023/05/17 04:28:57;;;;;;;8.02;2.13;;;;;;;15.54;46.17;102330.72;5015325;28;20034;-71
2023/05/17 04:31:23;;;;;;;7.50;2.90;;;;;;;15.54;45.44;102339.69;4998030;28;20026;-70
2023/05/17 04:33:48;;;;;;;7.13;2.28;;;;;;;15.53;46.81;102332.56;4998042;28;20030;-71
2023/05/17 04:36:13;;;;;;;5.63;1.90;;;;;;;15.56;46.61;102337.72;4965299;28;20034;-71
2023/05/17 04:38:39;;;;;;;7.82;1.85;;;;;;;15.57;46.60;102339.44;5015264;28;20056;-70
2023/05/17 04:41:05;;;;;;;10.80;2.72;;;;;;;15.60;46.22;102347.28;4997574;28;20061;-70
2023/05/17 04:43:31;;;;;;;19.80;2.25;;;;;;;15.64;46.46;102346.03;4981368;28;20451;-71
2023/05/17 04:45:57;;;;;;;4.75;2.10;;;;;;;15.68;46.68;102341.25;4998138;28;20022;-70
2023/05/17 04:48:22;;;;;;;7.18;2.38;;;;;;;15.70;47.29;102334.75;4997480;28;20105;-71
2023/05/17 04:50:48;;;;;;;4.35;2.05;;;;;;;15.71;47.14;102335.59;4980877;28;20045;-70
2023/05/17 04:53:14;;;;;;;9.13;2.80;;;;;;;15.76;46.79;102337.91;5014870;28;20038;-70
2023/05/17 04:55:40;;;;;;;20.23;3.05;;;;;;;15.79;47.53;102348.47;5014968;28;20090;-71
2023/05/17 04:58:05;;;;;;;6.55;1.90;;;;;;;15.80;47.53;102348.34;4981325;28;20510;-71
2023/05/17 05:00:31;;;;;;;6.68;2.22;;;;;;;15.83;47.27;102358.06;5014887;28;20026;-71
2023/05/17 05:02:56;;;;;;;11.02;2.47;;;;;;;15.86;46.34;102355.09;4981173;28;20034;-70
2023/05/17 05:05:23;;;;;;;10.18;3.03;;;;;;;15.89;46.84;102358.41;5014663;28;20026;-70
2023/05/17 05:07:49;;;;;;;5.75;2.47;;;;;;;15.93;47.46;102364.41;4981676;28;20025;-71
2023/05/17 05:10:14;;;;;;;12.77;2.75;;;;;;;15.96;46.85;102365.03;4998026;28;20144;-70
2023/05/17 05:12:40;;;;;;;6.22;2.53;;;;;;;16.00;46.56;102371.03;4980637;28;20034;-71
2023/05/17 05:15:06;;;;;;;12.70;3.13;;;;;;;16.02;48.03;102366.38;4996879;28;20405;-71
2023/05/17 05:17:32;;;;;;;10.77;3.38;;;;;;;16.09;46.46;102368.44;4997140;28;20496;-71
2023/05/17 05:19:57;;;;;;;9.63;3.22;;;;;;;16.09;47.95;102368.44;4996964;28;20037;-71
2023/05/17 05:22:23;;;;;;;7.53;4.40;;;;;;;16.15;47.07;102373.34;4997304;28;20109;-70
2023/05/17 05:24:48;;;;;;;7.38;3.65;;;;;;;16.20;48.21;102384.63;5014432;28;20072;-67
2023/05/17 05:27:13;;;;;;;9.75;3.60;;;;;;;16.23;48.00;102380.81;4979756;28;20413;-70
2023/05/17 05:29:41;;;;;;;10.60;4.28;;;;;;;16.30;47.97;102387.44;4964313;28;20034;-70
2023/05/17 05:32:07;;;;;;;16.08;3.85;;;;;;;16.34;47.77;102394.28;5014461;28;20033;-70
2023/05/17 05:34:33;;;;;;;6.53;3.25;;;;;;;16.39;46.99;102391.22;4980756;28;20029;-69
2023/05/17 05:37:00;;;;;;;10.43;3.05;;;;;;;16.45;47.89;102391.53;4997764;28;20050;-71
2023/05/17 05:39:26;;;;;;;6.80;3.13;;;;;;;16.50;47.67;102400.13;4980680;28;20111;-71
2023/05/17 05:41:52;;;;;;;10.68;2.67;;;;;;;16.58;48.55;102396.81;4981058;28;20521;-71
2023/05/17 05:44:17;;;;;;;15.52;3.40;;;;;;;16.63;48.21;102400.84;4980612;28;20057;-71
2023/05/17 05:46:43;;;;;;;15.52;3.65;;;;;;;16.68;48.46;102393.19;4996952;28;20397;-71
2023/05/17 05:49:08;;;;;;;10.38;3.58;;;;;;;16.75;47.35;102399.78;4980021;28;20025;-71
2023/05/17 05:51:33;;;;;;;10.82;3.55;;;;;;;16.85;47.37;102403.47;4980776;28;20469;-71
2023/05/17 05:53:59;;;;;;;7.35;3.38;;;;;;;16.87;47.86;102404.16;4980623;28;20048;-71
2023/05/17 05:56:26;;;;;;;10.10;3.28;;;;;;;17.10;46.54;102393.22;4998631;28;20049;-71
2023/05/17 05:58:53;;;;;;;11.50;3.30;;;;;;;17.31;47.17;102396.75;5001415;28;20512;-70
2023/05/17 06:01:18;;;;;;;12.35;3.13;;;;;;;17.43;46.91;102401.09;4997315;28;20113;-71
2023/05/17 06:03:44;;;;;;;16.00;4.47;;;;;;;17.70;46.56;102405.97;4979977;28;20112;-70
2023/05/17 06:06:10;;;;;;;16.95;3.50;;;;;;;17.91;46.01;102407.59;4980207;28;20520;-70
2023/05/17 06:08:35;;;;;;;11.30;3.45;;;;;;;17.97;45.96;102401.63;4996163;28;20030;-71
2023/05/17 06:11:00;;;;;;;9.55;4.13;;;;;;;17.96;47.12;102409.91;5013632;28;20033;-71
2023/05/17 06:13:26;;;;;;;12.40;3.22;;;;;;;18.12;46.66;102406.66;4963704;28;20181;-69
2023/05/17 06:15:51;;;;;;;9.00;3.15;;;;;;;18.21;45.88;102417.53;5014393;28;20034;-71
2023/05/17 06:18:16;;;;;;;12.40;3.35;;;;;;;18.12;46.99;102418.34;4963646;28;20030;-71
2023/05/17 06:20:42;;;;;;;12.38;3.05;;;;;;;18.19;46.87;102426.78;4996261;28;20045;-72
2023/05/17 06:23:07;;;;;;;10.27;3.50;;;;;;;18.28;46.76;102410.56;4980076;28;20029;-71
2023/05/17 06:25:33;;;;;;;10.68;4.38;;;;;;;18.28;47.05;102417.84;5013512;28;20037;-71
2023/05/17 06:28:01;;;;;;;8.55;4.20;;;;;;;18.31;46.85;102414.84;4980175;28;20507;-71
2023/05/17 06:30:26;;;;;;;11.82;3.75;;;;;;;18.29;47.42;102420.38;4995904;28;20037;-71
2023/05/17 06:32:52;;;;;;;17.30;3.80;;;;;;;18.52;47.30;102418.31;4979559;28;20108;-71
2023/05/17 06:35:17;;;;;;;10.60;4.60;;;;;;;18.52;47.47;102419.19;4995558;28;20056;-71
2023/05/17 06:37:42;;;;;;;15.80;4.35;;;;;;;18.55;47.40;102418.03;4996165;28;20026;-71
2023/05/17 06:40:09;;;;;;;7.68;3.25;;;;;;;18.45;47.82;102417.97;5013895;28;20050;-71
2023/05/17 06:42:34;;;;;;;14.25;3.92;;;;;;;18.42;47.62;102420.13;4979684;28;20073;-71
2023/05/17 06:45:00;;;;;;;14.80;4.28;;;;;;;18.34;47.64;102433.56;4996018;28;20062;-71
2023/05/17 06:47:25;;;;;;;10.00;3.25;;;;;;;18.34;47.46;102417.28;4979898;28;20091;-72
2023/05/17 06:49:51;;;;;;;15.35;3.50;;;;;;;18.30;47.04;102418.53;4996048;28;20112;-73
2023/05/17 06:52:16;;;;;;;13.02;3.28;;;;;;;18.38;47.29;102430.41;4980696;28;20026;-72
2023/05/17 06:54:42;;;;;;;13.15;3.17;;;;;;;18.50;46.37;102432.03;5013884;28;20040;-70
2023/05/17 06:57:08;;;;;;;12.65;3.17;;;;;;;18.48;46.95;102435.91;5013819;28;20084;-72
2023/05/17 06:59:36;;;;;;;16.88;3.20;;;;;;;18.45;47.30;102433.44;5014211;28;20076;-72
2023/05/17 07:02:01;;;;;;;10.40;2.65;;;;;;;18.40;47.01;102441.09;5017482;28;20041;-74
2023/05/17 07:04:27;;;;;;;18.27;3.75;;;;;;;18.46;46.91;102438.69;5018329;28;20033;-70
2023/05/17 07:06:53;;;;;;;9.93;3.00;;;;;;;18.53;46.67;102444.47;5001480;28;20030;-72
2023/05/17 07:09:19;;;;;;;14.50;2.63;;;;;;;18.60;46.19;102437.47;4986899;28;20034;-73
2023/05/17 07:11:45;;;;;;;10.02;2.90;;;;;;;18.61;46.06;102433.75;5002909;28;20501;-76
2023/05/17 07:14:10;;;;;;;9.13;2.88;;;;;;;19.33;45.44;102442.25;5003249;28;20034;-72
2023/05/17 07:16:36;;;;;;;12.30;3.90;;;;;;;19.69;45.47;102443.31;5004778;28;20109;-70
2023/05/17 07:19:01;;;;;;;11.90;3.22;;;;;;;19.70;45.19;102436.91;4985840;28;20033;-70
2023/05/17 07:21:27;;;;;;;17.73;3.35;;;;;;;19.60;45.75;102434.19;5001977;28;20409;-72
2023/05/17 07:23:52;;;;;;;17.55;3.45;;;;;;;19.45;45.83;102443.00;4999485;28;20026;-70
2023/05/17 07:26:18;;;;;;;9.68;2.90;;;;;;;19.39;46.22;102443.56;4999298;28;20030;-72
2023/05/17 07:28:43;;;;;;;13.02;3.83;;;;;;;19.97;44.87;102436.91;5017227;28;20104;-71
2023/05/17 07:31:10;;;;;;;8.93;3.80;;;;;;;20.27;44.41;102436.63;5020194;28;20026;-72
2023/05/17 07:33:36;;;;;;;10.13;2.88;;;;;;;20.16;44.77;102425.91;5019439;28;20041;-71
2023/05/17 07:36:03;;;;;;;11.95;3.67;;;;;;;20.74;43.89;102439.16;5000627;28;20501;-72
2023/05/17 07:38:28;;;;;;;10.05;3.47;;;;;;;20.88;44.01;102441.34;4982151;28;20137;-72
2023/05/17 07:40:53;;;;;;;8.40;3.78;;;;;;;20.73;43.94;102429.28;4999077;28;20145;-72
2023/05/17 07:43:19;;;;;;;10.10;3.00;;;;;;;20.95;43.19;102431.50;4999193;28;20112;-72
2023/05/17 07:45:44;;;;;;;6.78;2.92;;;;;;;21.54;42.32;102436.22;4982282;28;20045;-72
2023/05/17 07:48:10;;;;;;;9.60;2.75;;;;;;;21.39;43.22;102435.09;4966535;28;20033;-72
2023/05/17 07:50:35;;;;;;;12.13;2.60;;;;;;;22.03;42.38;102431.88;4982149;28;20140;-71
2023/05/17 07:53:00;;;;;;;8.20;2.30;;;;;;;22.53;42.11;102434.59;4998331;28;20104;-73
2023/05/17 07:55:26;;;;;;;11.45;2.83;;;;;;;23.00;41.14;102435.69;4998409;28;20469;-71
2023/05/17 07:57:51;;;;;;;10.25;2.38;;;;;;;23.04;40.41;102442.53;4982482;28;20033;-72
2023/05/17 08:00:18;;;;;;;7.80;2.22;;;;;;;22.39;42.17;102444.28;4982410;28;20040;-72
2023/05/17 08:02:44;;;;;;;11.90;2.72;;;;;;;22.74;41.74;102445.09;4965980;28;20022;-72
2023/05/17 08:05:09;;;;;;;6.35;2.28;;;;;;;23.20;40.67;102441.66;4981893;28;20113;-73
2023/05/17 08:07:34;;;;;;;10.40;2.92;;;;;;;23.56;39.49;102445.75;5015898;28;20034;-73
2023/05/17 08:10:00;;;;;;;7.82;2.70;;;;;;;23.11;39.95;102450.91;4966047;28;20385;-73
2023/05/17 08:12:25;;;;;;;5.85;2.28;;;;;;;22.83;40.23;102446.81;4997659;28;20037;-73
2023/05/17 08:14:51;;;;;;;10.52;1.83;;;;;;;22.55;39.95;102449.81;4998144;28;20030;-71
2023/05/17 08:17:16;;;;;;;8.48;1.83;;;;;;;22.29;40.69;102449.06;4998238;28;20111;-73
2023/05/17 08:19:41;;;;;;;7.38;1.75;;;;;;;22.40;39.50;102446.00;4998189;28;20037;-73
2023/05/17 08:22:08;;;;;;;11.82;1.95;;;;;;;22.99;39.37;102453.13;4982354;28;20116;-73
2023/05/17 08:24:34;;;;;;;5.20;1.77;;;;;;;23.37;38.70;102448.81;4997929;28;20042;-74
2023/05/17 08:27:01;;;;;;;5.40;2.30;;;;;;;23.74;37.64;102448.25;4997328;28;20038;-73
2023/05/17 08:29:26;;;;;;;7.30;1.70;;;;;;;24.08;37.55;102439.75;4998568;28;20136;-74
2023/05/17 08:31:53;;;;;;;4.30;1.98;;;;;;;24.42;37.09;102437.56;4997974;28;20069;-73
2023/05/17 08:34:18;;;;;;;7.72;2.17;;;;;;;24.36;37.12;102437.41;4998436;28;20032;-73
2023/05/17 08:36:44;;;;;;;6.68;1.83;;;;;;;24.76;36.25;102437.97;4981654;28;20034;-73
2023/05/17 08:39:11;;;;;;;8.95;1.67;;;;;;;25.10;35.65;102432.09;4994541;28;20046;-74
2023/05/17 08:41:37;;;;;;;8.90;2.00;;;;;;;25.16;35.86;102430.50;4978468;28;20110;-74
2023/05/17 08:44:03;;;;;;;8.05;1.48;;;;;;;25.49;35.63;102437.38;4994511;28;20050;-73
2023/05/17 08:46:30;;;;;;;5.25;1.55;;;;;;;25.55;35.33;102439.38;4994470;28;20032;-73
2023/05/17 08:48:58;;;;;;;5.25;1.85;;;;;;;25.64;34.68;102440.16;4979032;28;20023;-73
2023/05/17 08:51:25;;;;;;;6.68;1.70;;;;;;;24.92;35.94;102450.78;4978777;28;20423;-73
2023/05/17 08:53:50;;;;;;;7.30;1.98;;;;;;;24.48;35.94;102458.75;4994053;28;20405;-73
2023/05/17 08:56:19;;;;;;;10.93;1.40;;;;;;;24.04;35.89;102454.81;4995519;28;20034;-74
2023/05/17 08:58:47;;;;;;;9.25;1.77;;;;;;;24.08;35.26;102467.13;4978564;28;20030;-73
2023/05/17 09:01:13;;;;;;;5.88;1.63;;;;;;;23.75;36.21;102461.78;4994550;28;20029;-73
2023/05/17 09:03:40;;;;;;;5.72;1.63;;;;;;;24.05;34.85;102456.53;4994171;28;20390;-73
2023/05/17 09:06:06;;;;;;;6.15;1.33;;;;;;;23.91;35.96;102460.00;4978090;28;20038;-74
2023/05/17 09:08:31;;;;;;;5.13;1.88;;;;;;;23.54;35.35;102455.16;4995064;28;20109;-72
2023/05/17 09:10:58;;;;;;;6.18;1.90;;;;;;;23.25;35.54;102455.69;4993916;28;20022;-74
2023/05/17 09:13:24;;;;;;;7.68;2.10;;;;;;;23.12;35.38;102460.81;4994468;28;20019;-73
2023/05/17 09:15:49;;;;;;;5.38;1.60;;;;;;;23.88;34.19;102465.84;4994094;28;20085;-74
2023/05/17 09:18:15;;;;;;;9.98;1.90;;;;;;;23.75;34.32;102461.78;5002229;28;20498;-73
2023/05/17 09:20:41;;;;;;;4.95;1.35;;;;;;;24.06;34.58;102469.22;5000450;28;20098;-73
2023/05/17 09:23:08;;;;;;;4.78;1.60;;;;;;;24.54;33.92;102457.19;4993125;28;20113;-73
2023/05/17 09:25:35;;;;;;;7.00;1.75;;;;;;;24.97;33.54;102445.59;4994963;28;20034;-74
2023/05/17 09:28:08;;;;;;;5.07;1.42;;;;;;;25.34;33.09;102450.22;4978222;28;20038;-73
2023/05/17 09:30:37;;;;;;;6.95;1.88;;;;;;;25.68;32.74;102453.34;4993813;28;20038;-74
2023/05/17 09:33:09;;;;;;;6.20;2.08;;;;;;;25.50;32.65;102457.47;4993503;28;20506;-74
2023/05/17 09:35:35;;;;;;;;;;;;;;;25.98;32.67;102455.03;4994218;28;20042;-74
2023/05/17 09:38:08;;;;;;;7.38;1.70;;;;;;;26.32;32.19;102450.84;4993648;28;20270;-74
2023/05/17 09:40:44;;;;;;;4.05;1.38;;;;;;;25.90;32.58;102452.38;4979931;28;20141;-74
2023/05/17 09:43:10;;;;;;;7.07;1.55;;;;;;;26.17;32.49;102447.25;4995454;28;20029;-74
2023/05/17 09:45:36;;;;;;;4.13;1.30;;;;;;;26.53;31.77;102448.97;4961291;28;20039;-74
2023/05/17 09:48:15;;;;;;;7.65;1.60;;;;;;;26.84;31.76;102456.94;4993873;28;20030;-74
2023/05/17 09:50:48;;;;;;;4.75;1.70;;;;;;;27.04;31.48;102451.63;4994731;28;20529;-74
2023/05/17 09:53:30;;;;;;;10.63;2.67;;;;;;;27.00;31.05;102453.94;4977609;28;20038;-74
2023/05/17 09:55:57;;;;;;;6.00;1.73;;;;;;;26.42;31.38;102451.38;4977990;28;20026;-73
2023/05/17 09:58:23;;;;;;;4.43;2.03;;;;;;;26.98;30.62;102446.91;4977391;28;20506;-74
2023/05/17 10:00:53;;;;;;;5.53;1.60;;;;;;;27.29;29.90;102444.66;4993283;28;20038;-74
2023/05/17 10:03:19;;;;;;;4.97;1.58;;;;;;;27.62;29.55;102439.41;4994074;28;20034;-74
2023/05/17 10:05:46;;;;;;;5.80;1.77;;;;;;;27.99;30.12;102449.16;4993461;28;20034;-74
2023/05/17 10:08:15;;;;;;;3.13;1.58;;;;;;;28.27;29.21;102444.47;4993630;28;20061;-74
2023/05/17 10:10:42;;;;;;;7.78;1.50;;;;;;;28.49;29.46;102428.63;4978595;28;20116;-74
2023/05/17 10:13:09;;;;;;;7.30;2.55;;;;;;;28.78;28.64;102431.06;4994960;28;20402;-75
2023/05/17 10:15:35;;;;;;;9.18;1.75;;;;;;;28.82;28.71;102438.69;4976927;28;20418;-75
2023/05/17 10:18:02;;;;;;;7.50;1.55;;;;;;;28.24;28.81;102440.22;4992921;28;20041;-75
2023/05/17 10:20:28;;;;;;;6.03;1.40;;;;;;;27.50;30.05;102435.53;4976689;28;20037;-74
2023/05/17 10:22:53;;;;;;;5.53;1.80;;;;;;;27.01;30.19;102447.38;4976873;28;20026;-74
2023/05/17 10:25:20;;;;;;;3.58;1.42;;;;;;;26.94;29.56;102440.13;4993127;28;20049;-74
2023/05/17 10:27:48;;;;;;;9.40;1.27;;;;;;;26.49;30.01;102446.81;4993234;28;20042;-74
2023/05/17 10:30:14;;;;;;;8.15;1.83;;;;;;;27.32;29.29;102443.41;4994209;28;20035;-74
2023/05/17 10:32:40;;;;;;;8.35;1.58;;;;;;;27.75;28.80;102445.00;4992767;28;20065;-74
2023/05/17 10:35:08;;;;;;;8.77;1.83;;;;;;;28.16;28.96;102425.75;4996682;28;20070;-73
2023/05/17 10:37:34;;;;;;;5.25;1.75;;;;;;;28.52;27.60;102430.94;4999197;28;20048;-74
2023/05/17 10:39:59;;;;;;;5.57;1.25;;;;;;;28.65;27.83;102422.72;4998642;28;20104;-73
2023/05/17 10:42:25;;;;;;;8.93;1.58;;;;;;;28.97;28.41;102413.66;4999158;28;20038;-73
2023/05/17 10:44:52;;;;;;;9.23;1.80;;;;;;;29.05;27.51;102416.22;4999145;28;20418;-74
2023/05/17 10:47:18;;;;;;;9.13;1.92;;;;;;;28.79;27.38;102424.47;4982804;28;20438;-74
2023/05/17 10:49:46;;;;;;;13.18;1.90;;;;;;;29.27;27.56;102403.91;4982604;28;20080;-74
2023/05/17 10:52:13;;;;;;;3.92;1.50;;;;;;;29.30;27.37;102409.00;4999569;28;20097;-74
2023/05/17 10:54:41;;;;;;;3.25;1.58;;;;;;;29.58;27.22;102413.41;4966697;28;20506;-74
2023/05/17 10:57:07;;;;;;;5.95;1.63;;;;;;;29.80;26.76;102414.88;4982739;28;20062;-75
2023/05/17 10:59:34;;;;;;;9.80;2.10;;;;;;;29.10;27.11;102416.41;4999338;28;20026;-74
2023/05/17 11:02:04;;;;;;;5.22;1.25;;;;;;;29.61;26.63;102396.41;4998894;28;20084;-74
2023/05/17 11:04:37;;;;;;;3.53;1.15;;;;;;;29.77;26.77;102402.31;4982407;28;20086;-74
2023/05/17 11:07:20;;;;;;;10.70;1.77;;;;;;;29.18;27.39;102410.66;4999233;28;20037;-75
2023/05/17 11:09:53;;;;;;;5.07;1.35;;;;;;;29.02;26.99;102405.59;4998770;28;20042;-74
2023/05/17 11:12:52;;;;;;;5.38;1.70;;;;;;;28.88;27.55;102398.38;4999909;28;20041;-73
2023/05/17 11:15:22;;;;;;;5.70;1.30;;;;;;;28.40;26.85;102399.53;4985343;28;20038;-74
2023/05/17 11:17:49;;;;;;;10.90;1.80;;;;;;;28.75;26.67;102403.88;4998789;28;20034;-73
2023/05/17 11:20:15;;;;;;;6.47;1.92;;;;;;;29.48;26.34;102396.44;4998734;28;20118;-75
2023/05/17 11:23:11;;;;;;;6.38;2.33;;;;;;;29.98;25.84;102396.50;5000071;28;20537;-75